Latest Weather Observations for Flinders Island Airport

IDT60801

Issued at 7:01 pm EST Wednesday 10 August 2022 (issued every 10 minutes, with the page automatically refreshed every 10 minutes)

About weather observations | Map of weather stations | Latest weather observations for TAS | Other Formats
Station Details ID: 099005 Name: FLINDERS ISLAND AIRPORT Lat: -40.09 Lon: 148.00 Height: 9.0 m
Data from the previous 72 hours. | See also: Recent months at Flinders Island Airport
Date/Time
EST
Temp
°C
App
Temp
°C
Dew
Point
°C
Rel
Hum
%
Delta-T
°C
Wind Press
QNH
hPa
Press
MSL
hPa
Rain since
9am
mm
Dir  Spd
km/h
Gust
km/h
Spd
kts
Gust
kts
10/07:00pm 7.1 6.3 6.4 95 0.3 CALM 0 0 0 0 1025.1 1025.1 0.0
10/06:30pm 8.1 6.1 7.0 93 0.5 ENE 7 9 4 5 1025.4 1025.4 0.0
10/06:00pm 8.6 6.3 7.4 92 0.6 ENE 9 11 5 6 1025.4 1025.4 0.0
10/05:30pm 8.3 5.5 6.8 90 0.7 ENE 11 13 6 7 1025.3 1025.3 0.0
10/05:00pm 9.6 6.8 6.9 83 1.3 ENE 11 13 6 7 1025.6 1025.6 0.0
10/04:30pm 10.4 7.1 6.2 75 2.0 NE 13 15 7 8 1025.6 1025.6 0.0
10/04:00pm 11.3 7.9 6.0 70 2.5 NE 13 17 7 9 1026.1 1026.1 0.0
10/03:30pm 11.9 7.6 5.1 63 3.1 NNE 17 19 9 10 1026.3 1026.3 0.0
10/03:00pm 12.0 7.6 5.0 62 3.2 NE 17 20 9 11 1026.4 1026.4 0.0
10/02:30pm 12.0 7.9 4.2 59 3.5 NNE 15 19 8 10 1026.6 1026.6 0.0
10/02:00pm 12.2 7.7 4.2 58 3.6 NNE 17 20 9 11 1026.8 1026.8 0.0
10/01:30pm 12.4 8.6 4.1 57 3.7 NNE 13 17 7 9 1027.2 1027.2 0.0
10/01:00pm 12.5 7.5 3.7 55 3.9 NNE 19 24 10 13 1027.7 1027.7 0.0
10/12:30pm 12.9 7.7 3.3 52 4.3 NNE 20 30 11 16 1027.9 1027.9 0.0
10/12:00pm 13.1 9.1 5.0 58 3.7 NE 15 24 8 13 1028.3 1028.3 0.0
10/11:30am 12.4 8.6 4.1 57 3.7 E 13 17 7 9 1028.7 1028.7 0.0
10/11:00am 12.1 7.9 5.7 65 3.0 ENE 17 26 9 14 1028.8 1028.8 0.0
10/10:30am 11.8 8.0 5.9 67 2.8 ENE 15 20 8 11 1028.9 1028.9 0.0
10/10:00am 12.1 8.6 7.4 73 2.3 E 15 22 8 12 1028.9 1028.9 0.0
10/09:30am 11.5 9.2 7.6 77 1.9 E 9 15 5 8 1029.1 1029.1 0.0
10/09:00am 11.2 8.5 7.3 77 1.9 E 11 17 6 9 1029.5 1029.5 0.0
10/08:30am 9.4 7.5 7.7 89 0.8 ENE 7 11 4 6 1029.7 1029.7 0.0
10/08:00am 8.1 5.9 8.0 99 0.0 NE 9 9 5 5 1029.8 1029.8 0.0
10/07:30am 7.1 4.7 7.0 99 0.0 NE 9 11 5 6 1029.7 1029.7 0.0
10/07:00am 6.8 4.3 6.7 99 0.0 NE 9 11 5 6 1029.5 1029.5 0.0
10/06:30am 6.8 3.9 6.7 99 0.0 NE 11 13 6 7 1029.0 1029.0 0.0
10/06:00am 6.5 4.0 6.4 99 0.0 NE 9 9 5 5 1028.9 1028.9 0.0
10/05:30am 6.5 5.7 6.4 99 0.0 CALM 0 0 0 0 1028.6 1028.6 0.0
10/05:00am 6.3 5.0 6.2 99 0.0 NNE 2 9 1 5 1028.4 1028.4 0.0
10/04:30am 6.1 3.9 6.0 99 0.0 NNE 7 7 4 4 1028.4 1028.4 0.0
10/04:00am 5.7 3.9 5.6 99 0.0 ENE 4 11 2 6 1028.2 1028.2 0.0
10/03:30am 5.5 3.1 5.4 99 0.0 NE 7 11 4 6 1028.2 1028.2 0.0
10/03:00am 5.2 3.0 5.1 99 0.0 ENE 6 15 3 8 1028.3 1028.3 0.0
10/02:30am 5.1 2.3 5.0 99 0.0 ENE 9 15 5 8 1028.4 1028.4 0.0
10/02:00am 4.8 1.9 4.7 99 0.0 ENE 9 11 5 6 1028.7 1028.7 0.0
10/01:30am 4.6 1.7 4.5 99 0.0 NE 9 11 5 6 1028.8 1028.8 0.0
10/01:00am 4.2 0.8 4.1 99 0.0 ENE 11 15 6 8 1028.8 1028.8 0.0
10/12:30am 3.5 0.4 3.4 99 0.0 NE 9 11 5 6 1028.9 1028.9 0.0
10/12:00am 2.7 -1.0 2.6 99 0.0 NE 11 13 6 7 1029.0 1029.0 0.0
 
Date/Time
EST
Temp
°C
App
Temp
°C
Dew
Point
°C
Rel
Hum
%
Delta-T
°C
Wind Press
QNH
hPa
Press
MSL
hPa
Rain since
9am
mm
Dir  Spd
km/h
Gust
km/h
Spd
kts
Gust
kts
09/11:30pm 1.8 -2.0 1.7 99 0.0 NE 11 13 6 7 1029.0 1029.0 0.0
09/11:00pm 0.6 -3.4 0.5 99 0.0 NE 11 13 6 7 1029.1 1029.1 0.0
09/10:30pm 0.4 -3.6 0.3 99 0.0 ENE 11 13 6 7 1029.1 1029.1 0.0
09/10:00pm 0.0 -4.5 -0.1 99 0.0 NE 13 15 7 8 1029.1 1029.1 0.0
09/09:30pm 0.4 -3.6 0.3 99 0.0 NE 11 13 6 7 1029.1 1029.1 0.0
09/09:00pm 0.7 -3.3 0.6 99 0.0 ENE 11 13 6 7 1029.1 1029.1 0.0
09/08:30pm 1.7 -2.9 1.6 99 0.0 ENE 15 15 8 8 1029.0 1029.0 0.0
09/08:00pm 2.5 -1.6 2.4 99 0.0 ENE 13 15 7 8 1029.0 1029.0 0.0
09/07:30pm 3.1 -0.1 3.0 99 0.0 NE 9 11 5 6 1028.7 1028.7 0.0
09/07:00pm 3.7 0.6 3.6 99 0.0 NE 9 11 5 6 1028.6 1028.6 0.0
09/06:30pm 5.0 1.7 4.7 98 0.1 ENE 11 13 6 7 1028.6 1028.6 0.0
09/06:00pm 6.2 3.7 4.7 90 0.6 ESE 7 11 4 6 1028.2 1028.2 0.0
09/05:30pm 9.4 6.6 7.0 85 1.1 SSW 11 13 6 7 1028.0 1028.0 0.0
09/05:00pm 10.5 7.7 7.0 79 1.6 SSW 11 15 6 8 1027.8 1027.8 0.0
09/04:30pm 11.1 8.0 7.2 77 1.9 SSW 13 15 7 8 1027.6 1027.6 0.0
09/04:00pm 11.5 8.0 7.2 75 2.0 SSW 15 17 8 9 1027.6 1027.6 0.0
09/03:30pm 11.7 8.5 7.0 73 2.2 SSW 13 17 7 9 1027.5 1027.5 0.0
09/03:00pm 12.0 8.9 7.1 72 2.3 SSW 13 17 7 9 1027.2 1027.2 0.0
09/02:30pm 12.2 9.1 7.3 72 2.4 SSW 13 15 7 8 1027.1 1027.1 0.0
09/02:00pm 12.4 9.4 7.7 73 2.3 SSW 13 17 7 9 1027.1 1027.1 0.0
09/01:30pm 12.3 9.2 7.2 71 2.5 SW 13 15 7 8 1027.1 1027.1 0.0
09/01:00pm 12.0 8.8 6.9 71 2.4 SW 13 15 7 8 1027.3 1027.3 0.0
09/12:30pm 11.8 9.3 6.7 71 2.4 WSW 9 13 5 7 1027.8 1027.8 0.0
09/12:00pm 12.1 9.9 7.8 75 2.1 WSW 9 11 5 6 1027.9 1027.9 0.0
09/11:30am 11.6 9.1 6.7 72 2.3 SW 9 11 5 6 1028.1 1028.1 0.0
09/11:00am 11.4 8.9 6.7 73 2.2 WSW 9 9 5 5 1028.2 1028.2 0.0
09/10:30am 11.2 9.1 6.5 73 2.2 WSW 7 7 4 4 1028.3 1028.3 0.0
09/10:00am 10.6 10.1 7.8 83 1.3 CALM 0 0 0 0 1028.3 1028.3 0.0
09/09:30am 10.2 10.3 10.1 99 0.1 CALM 0 6 0 3 1028.3 1028.3 0.0
09/09:00am 7.0 4.6 7.0 100 0.0 ENE 9 11 5 6 1028.2 1028.2 0.2
09/08:30am 3.7 -0.2 3.6 99 0.0 ENE 13 15 7 8 1028.1 1028.1 0.2
09/08:00am 1.0 -3.3 0.9 99 0.0 ENE 13 15 7 8 1027.9 1027.9 0.2
09/07:30am 0.2 -4.2 0.1 99 0.0 NE 13 15 7 8 1027.7 1027.7 0.2
09/07:00am -0.9 -5.5 -1.0 99 0.0 NE 13 15 7 8 1027.4 1027.4 0.2
09/06:30am -0.5 -5.4 -0.6 99 0.0 NE 15 17 8 9 1027.1 1027.1 0.2
09/06:00am 0.1 -4.4 0.0 99 0.0 ENE 13 17 7 9 1026.9 1026.9 0.2
09/05:30am -0.4 -4.9 -0.5 99 0.0 NE 13 15 7 8 1026.8 1026.8 0.2
09/05:00am -0.5 -5.0 -0.6 99 0.0 ENE 13 15 7 8 1026.5 1026.5 0.2
09/04:30am -0.8 -5.4 -0.9 99 0.0 ENE 13 15 7 8 1026.3 1026.3 0.2
09/04:00am -0.6 -5.2 -0.7 99 0.0 ENE 13 15 7 8 1026.2 1026.2 0.2
09/03:30am -0.5 -5.4 -0.6 99 0.0 ENE 15 17 8 9 1026.2 1026.2 0.2
09/03:00am -0.4 -5.3 -0.5 99 0.0 ENE 15 17 8 9 1026.3 1026.3 0.2
09/02:30am -0.5 -5.0 -0.6 99 0.0 NE 13 15 7 8 1026.5 1026.5 0.2
09/02:00am -0.3 -4.8 -0.4 99 0.0 NE 13 15 7 8 1026.4 1026.4 0.2
09/01:30am 0.4 -4.4 0.3 99 0.0 ENE 15 17 8 9 1026.4 1026.4 0.2
09/01:00am 0.5 -4.3 0.4 99 0.0 ENE 15 17 8 9 1026.5 1026.5 0.2
09/12:30am 0.5 -3.9 0.4 99 0.0 ENE 13 15 7 8 1026.4 1026.4 0.2
09/12:00am 0.6 -3.4 0.5 99 0.0 ENE 11 13 6 7 1026.4 1026.4 0.2
 
Date/Time
EST
Temp
°C
App
Temp
°C
Dew
Point
°C
Rel
Hum
%
Delta-T
°C
Wind Press
QNH
hPa
Press
MSL
hPa
Rain since
9am
mm
Dir  Spd
km/h
Gust
km/h
Spd
kts
Gust
kts
08/11:30pm 0.7 -3.7 0.6 99 0.0 ENE 13 15 7 8 1026.6 1026.6 0.2
08/11:00pm 0.9 -3.8 0.8 99 0.0 ENE 15 17 8 9 1026.5 1026.5 0.2
08/10:30pm 0.9 -3.4 0.8 99 0.0 ENE 13 15 7 8 1026.6 1026.6 0.2
08/10:00pm 0.9 -3.1 0.8 99 0.0 ENE 11 13 6 7 1026.5 1026.5 0.0
08/09:30pm 1.5 -3.5 1.4 99 0.0 ENE 17 17 9 9 1026.3 1026.3 0.0
08/09:00pm 2.2 -2.3 2.1 99 0.0 ENE 15 17 8 9 1026.1 1026.1 0.0
08/08:30pm 2.5 -2.0 2.4 99 0.0 ENE 15 17 8 9 1026.1 1026.1 0.0
08/08:00pm 2.9 -1.5 2.8 99 0.0 NE 15 17 8 9 1026.1 1026.1 0.0
08/07:30pm 3.4 -0.5 3.3 99 0.0 NE 13 15 7 8 1026.1 1026.1 0.0
08/07:00pm 4.0 0.2 3.9 99 0.0 NE 13 13 7 7 1026.0 1026.0 0.0
08/06:30pm 4.5 0.8 4.4 99 0.0 NE 13 13 7 7 1025.8 1025.8 0.0
08/06:00pm 6.3 3.6 5.4 94 0.4 ENE 9 11 5 6 1025.4 1025.4 0.0
08/05:30pm 8.1 5.8 5.7 85 1.1 ENE 7 7 4 4 1025.1 1025.1 0.0
08/05:00pm 10.6 8.5 6.6 76 1.9 ENE 7 11 4 6 1024.9 1024.9 0.0
08/04:30pm 10.7 8.5 5.5 70 2.4 SSE 6 9 3 5 1024.6 1024.6 0.0
08/04:00pm 11.5 8.4 5.6 67 2.7 S 11 13 6 7 1024.7 1024.7 0.0
08/03:30pm 11.8 8.2 5.0 63 3.1 SSW 13 15 7 8 1024.6 1024.6 0.0
08/03:00pm 11.8 8.3 5.4 65 2.9 SSW 13 17 7 9 1024.6 1024.6 0.0
08/02:30pm 12.3 8.6 6.4 67 2.8 SSW 15 17 8 9 1024.5 1024.5 0.0
08/02:00pm 12.1 8.7 5.9 66 2.9 SSW 13 15 7 8 1024.4 1024.4 0.0
08/01:30pm 11.2 8.2 6.1 71 2.4 SSW 11 13 6 7 1024.6 1024.6 0.0
08/01:00pm 11.4 8.5 6.5 72 2.3 SSW 11 13 6 7 1024.7 1024.7 0.0
08/12:30pm 11.0 7.7 6.6 74 2.1 SSW 13 15 7 8 1024.8 1024.8 0.0
08/12:00pm 10.8 8.0 6.9 77 1.8 SW 11 13 6 7 1025.1 1025.1 0.0
08/11:30am 11.1 8.1 6.0 71 2.4 SSW 11 13 6 7 1025.3 1025.3 0.0
08/11:00am 11.4 9.5 5.1 65 2.9 NNE 4 7 2 4 1025.5 1025.5 0.0
08/10:30am 12.2 10.0 6.0 66 2.9 ESE 7 11 4 6 1025.5 1025.5 0.0
08/10:00am 11.1 8.7 7.0 76 1.9 ESE 9 13 5 7 1025.6 1025.6 0.0
08/09:30am 10.0 9.3 9.9 99 0.1 ENE 4 7 2 4 1025.6 1025.6 0.0
08/09:00am 7.4 5.4 7.3 99 0.0 NE 7 9 4 5 1025.5 1025.5 0.0
08/08:30am 4.0 0.6 3.9 99 0.0 NE 11 11 6 6 1025.5 1025.5 0.0
08/08:00am 1.5 -2.4 1.4 99 0.0 NE 11 13 6 7 1025.3 1025.3 0.0
08/07:30am 0.3 -4.1 0.2 99 0.0 ENE 13 15 7 8 1025.1 1025.1 0.0
08/07:00am 0.0 -4.1 -0.1 99 0.0 NE 11 13 6 7 1024.9 1024.9 0.0
08/06:30am -0.3 -4.4 -0.4 99 0.0 NE 11 11 6 6 1024.7 1024.7 0.0
08/06:00am -0.7 -5.3 -0.8 99 0.0 NE 13 13 7 7 1024.3 1024.3 0.0
08/05:30am -0.1 -4.6 -0.2 99 0.0 ENE 13 15 7 8 1024.0 1024.0 0.0
08/05:00am -0.3 -4.4 -0.4 99 0.0 ENE 11 11 6 6 1024.0 1024.0 0.0
08/04:30am -0.5 -5.0 -0.6 99 0.0 ENE 13 17 7 9 1023.8 1023.8 0.0
08/04:00am -0.4 -4.9 -0.5 99 0.0 NE 13 17 7 9 1023.7 1023.7 0.0
08/03:30am -0.2 -4.7 -0.3 99 0.0 NE 13 15 7 8 1023.6 1023.6 0.0
08/03:00am -0.3 -4.8 -0.4 99 0.0 NE 13 15 7 8 1023.6 1023.6 0.0
08/02:30am -0.1 -4.2 -0.2 99 0.0 NE 11 13 6 7 1023.7 1023.7 0.0
08/02:00am 0.0 -4.1 -0.1 99 0.0 NE 11 15 6 8 1023.7 1023.7 0.0
08/01:30am 0.0 -4.5 -0.1 99 0.0 NE 13 15 7 8 1023.6 1023.6 0.0
08/01:00am 0.3 -3.4 0.2 99 0.0 NE 9 11 5 6 1023.6 1023.6 0.0
08/12:30am -0.1 -4.2 -0.2 99 0.0 NE 11 11 6 6 1023.6 1023.6 0.0
08/12:00am 0.3 -3.4 0.2 99 0.0 ENE 9 11 5 6 1023.7 1023.7 0.0
 
Date/Time
EST
Temp
°C
App
Temp
°C
Dew
Point
°C
Rel
Hum
%
Delta-T
°C
Wind Press
QNH
hPa
Press
MSL
hPa
Rain since
9am
mm
Dir  Spd
km/h
Gust
km/h
Spd
kts
Gust
kts
07/11:30pm 0.6 -3.4 0.5 99 0.0 NE 11 13 6 7 1023.8 1023.8 0.0
07/11:00pm 0.9 -2.7 0.8 99 0.0 ENE 9 11 5 6 1023.7 1023.7 0.0
07/10:30pm 0.8 -2.8 0.7 99 0.0 NE 9 11 5 6 1023.5 1023.5 0.0
07/10:00pm 0.7 -3.3 0.6 99 0.0 NE 11 13 6 7 1023.5 1023.5 0.0
07/09:30pm 1.2 -1.9 1.1 99 0.0 ENE 7 9 4 5 1023.4 1023.4 0.0
07/09:00pm 1.2 -2.3 1.1 99 0.0 NE 9 11 5 6 1023.2 1023.2 0.0
07/08:30pm 2.1 -1.3 2.0 99 0.0 NE 9 11 5 6 1022.9 1022.9 0.0
07/08:00pm 2.4 -0.9 2.3 99 0.0 ENE 9 9 5 5 1022.9 1022.9 0.0
07/07:30pm 2.6 -0.8 2.0 96 0.2 ENE 9 11 5 6 1022.7 1022.7 0.0

Other formats

Comma delimited format used in spreadsheet applications
http://www.bom.gov.au/fwo/IDT60801/IDT60801.94980.axf

JavaScript Object Notation format (JSON) in row-major order
http://www.bom.gov.au/fwo/IDT60801/IDT60801.94980.json

Data quality

Most of these data are generated automatically and are frequently updated. Quality checks on data are not normally performed. It is possible for incorrect values to appear. Refer to information at About Latest Weather Observations and please check the disclaimer before using these data.